sensor_id;sensor_type;location;lat;lon;timestamp;P1;durP1;ratioP1;P2;durP2;ratioP2
16792;SDS011;8513;42.662;23.350;2023-02-11T00:00:30;16.33;;;13.07;;
16792;SDS011;8513;42.662;23.350;2023-02-11T00:02:55;17.40;;;13.43;;
16792;SDS011;8513;42.662;23.350;2023-02-11T00:05:20;15.87;;;12.87;;
16792;SDS011;8513;42.662;23.350;2023-02-11T00:07:46;15.97;;;13.90;;
16792;SDS011;8513;42.662;23.350;2023-02-11T00:10:11;17.17;;;14.03;;
16792;SDS011;8513;42.662;23.350;2023-02-11T00:12:37;16.90;;;13.80;;
16792;SDS011;8513;42.662;23.350;2023-02-11T00:15:03;16.47;;;14.07;;
16792;SDS011;8513;42.662;23.350;2023-02-11T00:17:30;14.87;;;13.13;;
16792;SDS011;8513;42.662;23.350;2023-02-11T00:19:56;18.73;;;13.30;;
16792;SDS011;8513;42.662;23.350;2023-02-11T00:22:22;14.73;;;12.60;;
16792;SDS011;8513;42.662;23.350;2023-02-11T00:24:47;16.47;;;13.40;;
16792;SDS011;8513;42.662;23.350;2023-02-11T00:27:13;15.67;;;13.53;;
16792;SDS011;8513;42.662;23.350;2023-02-11T00:29:38;16.53;;;13.17;;
16792;SDS011;8513;42.662;23.350;2023-02-11T00:32:04;16.23;;;13.43;;
16792;SDS011;8513;42.662;23.350;2023-02-11T00:34:31;17.07;;;13.57;;
16792;SDS011;8513;42.662;23.350;2023-02-11T00:36:57;16.43;;;13.47;;
16792;SDS011;8513;42.662;23.350;2023-02-11T00:39:22;15.47;;;13.00;;
16792;SDS011;8513;42.662;23.350;2023-02-11T00:41:48;16.07;;;12.57;;
16792;SDS011;8513;42.662;23.350;2023-02-11T00:44:13;16.10;;;12.80;;
16792;SDS011;8513;42.662;23.350;2023-02-11T00:46:39;14.20;;;12.50;;
16792;SDS011;8513;42.662;23.350;2023-02-11T00:49:04;14.43;;;12.37;;
16792;SDS011;8513;42.662;23.350;2023-02-11T00:51:30;14.23;;;12.23;;
16792;SDS011;8513;42.662;23.350;2023-02-11T00:53:55;15.87;;;12.80;;
16792;SDS011;8513;42.662;23.350;2023-02-11T00:56:21;16.43;;;12.50;;
16792;SDS011;8513;42.662;23.350;2023-02-11T00:58:47;16.43;;;13.37;;
16792;SDS011;8513;42.662;23.350;2023-02-11T01:01:12;14.90;;;12.77;;
16792;SDS011;8513;42.662;23.350;2023-02-11T01:03:38;16.53;;;12.90;;
16792;SDS011;8513;42.662;23.350;2023-02-11T01:06:05;15.17;;;12.10;;
16792;SDS011;8513;42.662;23.350;2023-02-11T01:08:32;17.00;;;12.60;;
16792;SDS011;8513;42.662;23.350;2023-02-11T01:11:02;17.07;;;13.47;;
16792;SDS011;8513;42.662;23.350;2023-02-11T01:13:33;15.73;;;13.27;;
16792;SDS011;8513;42.662;23.350;2023-02-11T01:15:59;15.93;;;13.13;;
16792;SDS011;8513;42.662;23.350;2023-02-11T01:18:25;16.47;;;12.50;;
16792;SDS011;8513;42.662;23.350;2023-02-11T01:20:52;15.43;;;12.90;;
16792;SDS011;8513;42.662;23.350;2023-02-11T01:23:18;14.30;;;12.80;;
16792;SDS011;8513;42.662;23.350;2023-02-11T01:25:43;16.63;;;13.17;;
16792;SDS011;8513;42.662;23.350;2023-02-11T01:28:14;15.83;;;13.23;;
16792;SDS011;8513;42.662;23.350;2023-02-11T01:30:41;15.33;;;12.43;;
16792;SDS011;8513;42.662;23.350;2023-02-11T01:33:07;15.27;;;12.97;;
16792;SDS011;8513;42.662;23.350;2023-02-11T01:35:32;15.37;;;12.87;;
16792;SDS011;8513;42.662;23.350;2023-02-11T01:37:57;16.40;;;13.57;;
16792;SDS011;8513;42.662;23.350;2023-02-11T01:40:23;16.57;;;13.37;;
16792;SDS011;8513;42.662;23.350;2023-02-11T01:42:48;15.30;;;12.53;;
16792;SDS011;8513;42.662;23.350;2023-02-11T01:48:04;16.80;;;13.33;;
16792;SDS011;8513;42.662;23.350;2023-02-11T01:50:30;17.70;;;13.33;;
16792;SDS011;8513;42.662;23.350;2023-02-11T01:52:55;16.63;;;14.07;;
16792;SDS011;8513;42.662;23.350;2023-02-11T01:55:41;19.73;;;13.90;;
16792;SDS011;8513;42.662;23.350;2023-02-11T01:58:25;16.90;;;14.03;;
16792;SDS011;8513;42.662;23.350;2023-02-11T02:00:53;16.27;;;13.87;;
16792;SDS011;8513;42.662;23.350;2023-02-11T02:03:19;18.97;;;14.07;;
16792;SDS011;8513;42.662;23.350;2023-02-11T02:05:56;15.67;;;12.73;;
16792;SDS011;8513;42.662;23.350;2023-02-11T02:11:15;15.67;;;14.07;;
16792;SDS011;8513;42.662;23.350;2023-02-11T02:13:41;16.93;;;14.20;;
16792;SDS011;8513;42.662;23.350;2023-02-11T02:16:09;17.47;;;14.27;;
16792;SDS011;8513;42.662;23.350;2023-02-11T02:37:42;17.80;;;13.60;;
16792;SDS011;8513;42.662;23.350;2023-02-11T02:40:11;16.20;;;13.30;;
16792;SDS011;8513;42.662;23.350;2023-02-11T02:42:40;15.20;;;13.47;;
16792;SDS011;8513;42.662;23.350;2023-02-11T02:45:08;17.20;;;13.63;;
16792;SDS011;8513;42.662;23.350;2023-02-11T02:47:36;16.67;;;13.63;;
16792;SDS011;8513;42.662;23.350;2023-02-11T02:50:02;15.90;;;12.87;;
16792;SDS011;8513;42.662;23.350;2023-02-11T03:03:15;15.43;;;13.23;;
16792;SDS011;8513;42.662;23.350;2023-02-11T03:06:14;17.43;;;14.20;;
16792;SDS011;8513;42.662;23.350;2023-02-11T03:08:51;17.33;;;14.77;;
16792;SDS011;8513;42.662;23.350;2023-02-11T03:11:21;16.33;;;13.57;;
16792;SDS011;8513;42.662;23.350;2023-02-11T03:13:48;16.37;;;13.47;;
16792;SDS011;8513;42.662;23.350;2023-02-11T03:16:16;15.60;;;13.33;;
16792;SDS011;8513;42.662;23.350;2023-02-11T03:21:58;15.77;;;13.77;;
16792;SDS011;8513;42.662;23.350;2023-02-11T03:24:28;16.73;;;13.93;;
16792;SDS011;8513;42.662;23.350;2023-02-11T03:26:58;17.93;;;14.50;;
16792;SDS011;8513;42.662;23.350;2023-02-11T03:32:03;17.47;;;14.10;;
16792;SDS011;8513;42.662;23.350;2023-02-11T03:34:52;16.97;;;14.63;;
16792;SDS011;8513;42.662;23.350;2023-02-11T03:42:42;17.33;;;14.73;;
16792;SDS011;8513;42.662;23.350;2023-02-11T03:45:14;16.73;;;13.93;;
16792;SDS011;8513;42.662;23.350;2023-02-11T03:47:45;17.63;;;14.20;;
16792;SDS011;8513;42.662;23.350;2023-02-11T03:50:14;16.80;;;14.30;;
16792;SDS011;8513;42.662;23.350;2023-02-11T03:52:41;19.00;;;14.27;;
16792;SDS011;8513;42.662;23.350;2023-02-11T03:55:10;17.03;;;13.97;;
16792;SDS011;8513;42.662;23.350;2023-02-11T03:57:39;16.37;;;14.10;;
16792;SDS011;8513;42.662;23.350;2023-02-11T04:00:05;18.80;;;14.70;;
16792;SDS011;8513;42.662;23.350;2023-02-11T04:02:33;16.57;;;14.37;;
16792;SDS011;8513;42.662;23.350;2023-02-11T04:05:01;19.37;;;15.13;;
16792;SDS011;8513;42.662;23.350;2023-02-11T04:07:27;17.63;;;14.23;;
16792;SDS011;8513;42.662;23.350;2023-02-11T04:10:18;19.93;;;14.60;;
16792;SDS011;8513;42.662;23.350;2023-02-11T04:12:43;17.00;;;14.23;;
16792;SDS011;8513;42.662;23.350;2023-02-11T04:15:09;18.63;;;15.57;;
16792;SDS011;8513;42.662;23.350;2023-02-11T04:17:34;18.07;;;14.73;;
16792;SDS011;8513;42.662;23.350;2023-02-11T04:20:00;17.37;;;14.27;;
16792;SDS011;8513;42.662;23.350;2023-02-11T04:22:25;20.03;;;15.73;;
16792;SDS011;8513;42.662;23.350;2023-02-11T04:24:51;18.70;;;14.80;;
16792;SDS011;8513;42.662;23.350;2023-02-11T04:27:16;17.93;;;14.87;;
16792;SDS011;8513;42.662;23.350;2023-02-11T04:29:42;18.33;;;15.07;;
16792;SDS011;8513;42.662;23.350;2023-02-11T04:32:08;17.27;;;15.13;;
16792;SDS011;8513;42.662;23.350;2023-02-11T04:34:35;19.87;;;15.10;;
16792;SDS011;8513;42.662;23.350;2023-02-11T04:37:00;18.77;;;14.63;;
16792;SDS011;8513;42.662;23.350;2023-02-11T04:39:26;19.57;;;15.33;;
16792;SDS011;8513;42.662;23.350;2023-02-11T04:41:51;19.77;;;15.37;;
16792;SDS011;8513;42.662;23.350;2023-02-11T04:44:17;18.87;;;16.27;;
16792;SDS011;8513;42.662;23.350;2023-02-11T04:46:42;19.80;;;15.60;;
16792;SDS011;8513;42.662;23.350;2023-02-11T04:49:09;18.13;;;14.97;;
16792;SDS011;8513;42.662;23.350;2023-02-11T04:51:39;20.83;;;16.10;;
16792;SDS011;8513;42.662;23.350;2023-02-11T04:54:04;20.53;;;16.40;;
16792;SDS011;8513;42.662;23.350;2023-02-11T04:56:30;22.33;;;18.03;;
16792;SDS011;8513;42.662;23.350;2023-02-11T04:58:55;24.97;;;20.23;;
16792;SDS011;8513;42.662;23.350;2023-02-11T05:01:21;26.70;;;20.77;;
16792;SDS011;8513;42.662;23.350;2023-02-11T05:03:46;27.10;;;20.63;;
16792;SDS011;8513;42.662;23.350;2023-02-11T05:06:12;26.33;;;20.13;;
16792;SDS011;8513;42.662;23.350;2023-02-11T05:08:37;24.67;;;19.10;;
16792;SDS011;8513;42.662;23.350;2023-02-11T05:11:04;23.57;;;19.37;;
16792;SDS011;8513;42.662;23.350;2023-02-11T05:13:30;28.47;;;19.63;;
16792;SDS011;8513;42.662;23.350;2023-02-11T05:15:56;24.13;;;20.50;;
16792;SDS011;8513;42.662;23.350;2023-02-11T05:18:21;29.30;;;20.97;;
16792;SDS011;8513;42.662;23.350;2023-02-11T05:20:47;24.10;;;19.30;;
16792;SDS011;8513;42.662;23.350;2023-02-11T05:23:12;24.93;;;19.83;;
16792;SDS011;8513;42.662;23.350;2023-02-11T05:25:38;27.13;;;20.73;;
16792;SDS011;8513;42.662;23.350;2023-02-11T05:28:04;36.80;;;24.13;;
16792;SDS011;8513;42.662;23.350;2023-02-11T05:30:30;53.83;;;35.37;;
16792;SDS011;8513;42.662;23.350;2023-02-11T05:32:55;34.63;;;25.67;;
16792;SDS011;8513;42.662;23.350;2023-02-11T05:35:21;29.83;;;23.03;;
16792;SDS011;8513;42.662;23.350;2023-02-11T05:37:47;36.77;;;25.53;;
16792;SDS011;8513;42.662;23.350;2023-02-11T05:40:13;40.93;;;27.63;;
16792;SDS011;8513;42.662;23.350;2023-02-11T05:42:38;76.37;;;44.40;;
16792;SDS011;8513;42.662;23.350;2023-02-11T05:45:04;86.40;;;49.37;;
16792;SDS011;8513;42.662;23.350;2023-02-11T05:47:30;75.67;;;48.70;;
16792;SDS011;8513;42.662;23.350;2023-02-11T05:49:55;53.83;;;37.10;;
16792;SDS011;8513;42.662;23.350;2023-02-11T05:52:21;41.47;;;28.73;;
16792;SDS011;8513;42.662;23.350;2023-02-11T05:54:47;35.23;;;27.37;;
16792;SDS011;8513;42.662;23.350;2023-02-11T05:57:13;37.43;;;27.40;;
16792;SDS011;8513;42.662;23.350;2023-02-11T05:59:39;37.10;;;27.30;;
16792;SDS011;8513;42.662;23.350;2023-02-11T06:02:05;35.60;;;25.67;;
16792;SDS011;8513;42.662;23.350;2023-02-11T06:04:32;32.80;;;24.60;;
16792;SDS011;8513;42.662;23.350;2023-02-11T06:06:58;28.93;;;22.63;;
16792;SDS011;8513;42.662;23.350;2023-02-11T06:09:23;27.37;;;21.27;;
16792;SDS011;8513;42.662;23.350;2023-02-11T06:11:49;31.23;;;22.10;;
16792;SDS011;8513;42.662;23.350;2023-02-11T06:14:15;26.37;;;21.67;;
16792;SDS011;8513;42.662;23.350;2023-02-11T06:16:40;29.77;;;22.67;;
16792;SDS011;8513;42.662;23.350;2023-02-11T06:19:06;26.10;;;21.50;;
16792;SDS011;8513;42.662;23.350;2023-02-11T06:21:31;28.73;;;21.33;;
16792;SDS011;8513;42.662;23.350;2023-02-11T06:23:57;28.73;;;21.87;;
16792;SDS011;8513;42.662;23.350;2023-02-11T06:26:22;29.13;;;22.23;;
16792;SDS011;8513;42.662;23.350;2023-02-11T06:28:47;28.20;;;21.97;;
16792;SDS011;8513;42.662;23.350;2023-02-11T06:31:13;26.03;;;22.03;;
16792;SDS011;8513;42.662;23.350;2023-02-11T06:33:40;28.40;;;22.07;;
16792;SDS011;8513;42.662;23.350;2023-02-11T06:36:26;28.03;;;22.13;;
16792;SDS011;8513;42.662;23.350;2023-02-11T06:38:51;26.47;;;21.00;;
16792;SDS011;8513;42.662;23.350;2023-02-11T06:41:17;26.70;;;22.40;;
16792;SDS011;8513;42.662;23.350;2023-02-11T06:43:45;27.47;;;22.03;;
16792;SDS011;8513;42.662;23.350;2023-02-11T06:46:12;29.67;;;22.60;;
16792;SDS011;8513;42.662;23.350;2023-02-11T06:48:38;27.20;;;21.50;;
16792;SDS011;8513;42.662;23.350;2023-02-11T06:51:04;26.17;;;21.13;;
16792;SDS011;8513;42.662;23.350;2023-02-11T06:53:39;26.43;;;21.60;;
16792;SDS011;8513;42.662;23.350;2023-02-11T06:56:10;27.03;;;21.20;;
16792;SDS011;8513;42.662;23.350;2023-02-11T06:58:39;24.83;;;19.87;;
16792;SDS011;8513;42.662;23.350;2023-02-11T07:01:05;26.20;;;21.37;;
16792;SDS011;8513;42.662;23.350;2023-02-11T07:03:33;25.43;;;21.33;;
16792;SDS011;8513;42.662;23.350;2023-02-11T07:06:00;26.47;;;19.77;;
16792;SDS011;8513;42.662;23.350;2023-02-11T07:08:27;24.80;;;19.87;;
16792;SDS011;8513;42.662;23.350;2023-02-11T07:10:52;24.00;;;19.87;;
16792;SDS011;8513;42.662;23.350;2023-02-11T07:13:17;25.37;;;20.27;;
16792;SDS011;8513;42.662;23.350;2023-02-11T07:15:43;26.93;;;20.73;;
16792;SDS011;8513;42.662;23.350;2023-02-11T07:18:08;23.97;;;18.93;;
16792;SDS011;8513;42.662;23.350;2023-02-11T07:20:34;22.67;;;18.97;;
16792;SDS011;8513;42.662;23.350;2023-02-11T07:23:01;24.87;;;19.10;;
16792;SDS011;8513;42.662;23.350;2023-02-11T07:25:27;25.33;;;20.83;;
16792;SDS011;8513;42.662;23.350;2023-02-11T07:27:52;25.00;;;20.30;;
16792;SDS011;8513;42.662;23.350;2023-02-11T07:30:18;27.37;;;21.43;;
16792;SDS011;8513;42.662;23.350;2023-02-11T07:32:43;23.97;;;19.70;;
16792;SDS011;8513;42.662;23.350;2023-02-11T07:35:08;23.50;;;19.70;;
16792;SDS011;8513;42.662;23.350;2023-02-11T07:37:34;26.87;;;21.33;;
16792;SDS011;8513;42.662;23.350;2023-02-11T07:40:00;26.53;;;20.30;;
16792;SDS011;8513;42.662;23.350;2023-02-11T07:42:26;28.90;;;21.63;;
16792;SDS011;8513;42.662;23.350;2023-02-11T07:44:51;25.33;;;19.83;;
16792;SDS011;8513;42.662;23.350;2023-02-11T07:47:17;25.23;;;20.43;;
16792;SDS011;8513;42.662;23.350;2023-02-11T07:49:42;27.57;;;20.90;;
16792;SDS011;8513;42.662;23.350;2023-02-11T07:52:08;29.30;;;22.33;;
16792;SDS011;8513;42.662;23.350;2023-02-11T07:54:33;25.23;;;19.53;;
16792;SDS011;8513;42.662;23.350;2023-02-11T07:56:59;24.03;;;19.73;;
16792;SDS011;8513;42.662;23.350;2023-02-11T07:59:27;24.73;;;20.33;;
16792;SDS011;8513;42.662;23.350;2023-02-11T08:01:52;25.13;;;19.23;;
16792;SDS011;8513;42.662;23.350;2023-02-11T08:04:18;24.03;;;19.07;;
16792;SDS011;8513;42.662;23.350;2023-02-11T08:06:48;21.90;;;17.50;;
16792;SDS011;8513;42.662;23.350;2023-02-11T08:09:14;24.53;;;19.13;;
16792;SDS011;8513;42.662;23.350;2023-02-11T08:11:43;21.30;;;17.60;;
16792;SDS011;8513;42.662;23.350;2023-02-11T08:14:09;23.67;;;19.60;;
16792;SDS011;8513;42.662;23.350;2023-02-11T08:16:36;25.17;;;20.00;;
16792;SDS011;8513;42.662;23.350;2023-02-11T08:19:12;23.90;;;19.53;;
16792;SDS011;8513;42.662;23.350;2023-02-11T08:21:40;25.30;;;18.90;;
16792;SDS011;8513;42.662;23.350;2023-02-11T08:24:06;24.70;;;19.40;;
16792;SDS011;8513;42.662;23.350;2023-02-11T08:26:32;31.63;;;19.43;;
16792;SDS011;8513;42.662;23.350;2023-02-11T08:28:59;25.67;;;19.40;;
16792;SDS011;8513;42.662;23.350;2023-02-11T08:46:30;23.93;;;20.83;;
16792;SDS011;8513;42.662;23.350;2023-02-11T08:48:55;26.40;;;21.30;;
16792;SDS011;8513;42.662;23.350;2023-02-11T09:04:24;25.90;;;21.17;;
16792;SDS011;8513;42.662;23.350;2023-02-11T09:06:49;26.33;;;21.57;;
16792;SDS011;8513;42.662;23.350;2023-02-11T09:09:15;24.97;;;19.60;;
16792;SDS011;8513;42.662;23.350;2023-02-11T09:11:41;27.23;;;19.90;;
16792;SDS011;8513;42.662;23.350;2023-02-11T09:14:10;23.77;;;19.07;;
16792;SDS011;8513;42.662;23.350;2023-02-11T09:16:42;25.50;;;19.83;;
16792;SDS011;8513;42.662;23.350;2023-02-11T09:19:08;25.63;;;19.33;;
16792;SDS011;8513;42.662;23.350;2023-02-11T09:21:34;23.67;;;18.20;;
16792;SDS011;8513;42.662;23.350;2023-02-11T09:24:00;20.93;;;17.37;;
16792;SDS011;8513;42.662;23.350;2023-02-11T09:26:26;20.53;;;17.37;;
16792;SDS011;8513;42.662;23.350;2023-02-11T09:39:48;21.30;;;17.53;;
16792;SDS011;8513;42.662;23.350;2023-02-11T09:44:51;20.17;;;15.57;;
16792;SDS011;8513;42.662;23.350;2023-02-11T09:47:30;21.27;;;16.17;;
16792;SDS011;8513;42.662;23.350;2023-02-11T09:50:05;19.27;;;15.93;;
16792;SDS011;8513;42.662;23.350;2023-02-11T09:52:54;17.73;;;14.97;;
16792;SDS011;8513;42.662;23.350;2023-02-11T09:58:11;16.67;;;14.60;;
16792;SDS011;8513;42.662;23.350;2023-02-11T10:00:43;19.20;;;14.73;;
16792;SDS011;8513;42.662;23.350;2023-02-11T10:14:49;18.60;;;14.97;;
16792;SDS011;8513;42.662;23.350;2023-02-11T10:25:43;16.70;;;12.90;;
16792;SDS011;8513;42.662;23.350;2023-02-11T10:28:14;15.73;;;12.50;;
16792;SDS011;8513;42.662;23.350;2023-02-11T10:30:48;15.60;;;12.63;;
16792;SDS011;8513;42.662;23.350;2023-02-11T10:35:54;16.73;;;12.87;;
16792;SDS011;8513;42.662;23.350;2023-02-11T10:38:20;17.20;;;12.67;;
16792;SDS011;8513;42.662;23.350;2023-02-11T10:40:45;19.43;;;12.43;;
16792;SDS011;8513;42.662;23.350;2023-02-11T10:43:15;15.57;;;13.30;;
16792;SDS011;8513;42.662;23.350;2023-02-11T10:45:42;16.10;;;11.97;;
16792;SDS011;8513;42.662;23.350;2023-02-11T10:53:46;16.00;;;12.17;;
16792;SDS011;8513;42.662;23.350;2023-02-11T10:56:34;16.80;;;13.17;;
16792;SDS011;8513;42.662;23.350;2023-02-11T10:59:27;14.63;;;12.43;;
16792;SDS011;8513;42.662;23.350;2023-02-11T11:01:56;17.37;;;12.50;;
16792;SDS011;8513;42.662;23.350;2023-02-11T11:09:55;15.77;;;12.07;;
16792;SDS011;8513;42.662;23.350;2023-02-11T11:12:36;15.37;;;12.47;;
16792;SDS011;8513;42.662;23.350;2023-02-11T11:15:13;17.57;;;12.40;;
16792;SDS011;8513;42.662;23.350;2023-02-11T11:17:42;18.63;;;12.90;;
16792;SDS011;8513;42.662;23.350;2023-02-11T11:22:45;15.70;;;12.90;;
16792;SDS011;8513;42.662;23.350;2023-02-11T11:25:57;17.20;;;12.77;;
16792;SDS011;8513;42.662;23.350;2023-02-11T11:28:15;18.17;;;12.50;;
16792;SDS011;8513;42.662;23.350;2023-02-11T11:30:49;15.03;;;12.20;;
16792;SDS011;8513;42.662;23.350;2023-02-11T11:33:21;15.13;;;12.63;;
16792;SDS011;8513;42.662;23.350;2023-02-11T11:38:26;15.47;;;12.30;;
16792;SDS011;8513;42.662;23.350;2023-02-11T11:41:13;15.20;;;10.83;;
16792;SDS011;8513;42.662;23.350;2023-02-11T11:43:39;13.90;;;10.50;;
16792;SDS011;8513;42.662;23.350;2023-02-11T11:46:04;13.77;;;10.40;;
16792;SDS011;8513;42.662;23.350;2023-02-11T11:48:37;13.20;;;10.47;;
16792;SDS011;8513;42.662;23.350;2023-02-11T11:51:09;15.33;;;10.40;;
16792;SDS011;8513;42.662;23.350;2023-02-11T11:56:31;12.50;;;9.27;;
16792;SDS011;8513;42.662;23.350;2023-02-11T11:59:00;28.17;;;9.30;;
16792;SDS011;8513;42.662;23.350;2023-02-11T12:04:30;11.90;;;8.67;;
16792;SDS011;8513;42.662;23.350;2023-02-11T12:10:33;14.57;;;8.77;;
16792;SDS011;8513;42.662;23.350;2023-02-11T12:13:22;11.30;;;8.93;;
16792;SDS011;8513;42.662;23.350;2023-02-11T12:18:47;10.83;;;8.60;;
16792;SDS011;8513;42.662;23.350;2023-02-11T12:38:31;10.63;;;9.65;;
16792;SDS011;8513;42.662;23.350;2023-02-11T12:43:37;12.32;;;11.05;;
16792;SDS011;8513;42.662;23.350;2023-02-11T12:54:39;11.82;;;10.73;;
16792;SDS011;8513;42.662;23.350;2023-02-11T12:57:22;11.30;;;10.20;;
16792;SDS011;8513;42.662;23.350;2023-02-11T13:03:00;13.18;;;11.88;;
16792;SDS011;8513;42.662;23.350;2023-02-11T13:10:53;12.32;;;11.13;;
16792;SDS011;8513;42.662;23.350;2023-02-11T13:21:30;13.20;;;12.02;;
16792;SDS011;8513;42.662;23.350;2023-02-11T13:26:47;12.75;;;11.55;;
16792;SDS011;8513;42.662;23.350;2023-02-11T13:29:41;12.68;;;11.35;;
16792;SDS011;8513;42.662;23.350;2023-02-11T13:37:52;12.23;;;11.23;;
16792;SDS011;8513;42.662;23.350;2023-02-11T13:42:50;12.07;;;11.00;;
16792;SDS011;8513;42.662;23.350;2023-02-11T13:47:49;13.07;;;11.88;;
16792;SDS011;8513;42.662;23.350;2023-02-11T13:50:22;12.80;;;11.65;;
16792;SDS011;8513;42.662;23.350;2023-02-11T13:52:55;12.82;;;11.75;;
16792;SDS011;8513;42.662;23.350;2023-02-11T13:55:23;12.30;;;11.20;;
16792;SDS011;8513;42.662;23.350;2023-02-11T14:06:35;10.77;;;9.30;;
16792;SDS011;8513;42.662;23.350;2023-02-11T14:16:32;10.23;;;9.13;;
16792;SDS011;8513;42.662;23.350;2023-02-11T14:18:59;9.00;;;8.10;;
16792;SDS011;8513;42.662;23.350;2023-02-11T14:26:44;12.17;;;9.10;;
16792;SDS011;8513;42.662;23.350;2023-02-11T14:32:37;11.53;;;9.23;;
16792;SDS011;8513;42.662;23.350;2023-02-11T14:41:22;13.17;;;8.77;;
16792;SDS011;8513;42.662;23.350;2023-02-11T14:43:53;11.57;;;10.37;;
16792;SDS011;8513;42.662;23.350;2023-02-11T14:46:22;12.87;;;9.93;;
16792;SDS011;8513;42.662;23.350;2023-02-11T14:48:50;15.73;;;11.37;;
16792;SDS011;8513;42.662;23.350;2023-02-11T14:51:25;13.03;;;9.77;;
16792;SDS011;8513;42.662;23.350;2023-02-11T14:53:58;12.17;;;10.50;;
16792;SDS011;8513;42.662;23.350;2023-02-11T14:56:37;12.17;;;10.27;;
16792;SDS011;8513;42.662;23.350;2023-02-11T14:59:12;11.70;;;10.03;;
16792;SDS011;8513;42.662;23.350;2023-02-11T15:01:40;12.70;;;10.03;;
16792;SDS011;8513;42.662;23.350;2023-02-11T15:04:26;10.80;;;9.63;;
16792;SDS011;8513;42.662;23.350;2023-02-11T15:06:51;11.67;;;10.30;;
16792;SDS011;8513;42.662;23.350;2023-02-11T15:09:19;11.63;;;10.50;;
16792;SDS011;8513;42.662;23.350;2023-02-11T15:11:52;11.45;;;10.30;;
16792;SDS011;8513;42.662;23.350;2023-02-11T15:14:21;12.27;;;10.32;;
16792;SDS011;8513;42.662;23.350;2023-02-11T15:16:52;11.80;;;10.17;;
16792;SDS011;8513;42.662;23.350;2023-02-11T15:22:21;12.63;;;10.07;;
16792;SDS011;8513;42.662;23.350;2023-02-11T15:24:56;12.23;;;9.73;;
16792;SDS011;8513;42.662;23.350;2023-02-11T15:27:23;12.43;;;10.03;;
16792;SDS011;8513;42.662;23.350;2023-02-11T15:29:49;11.23;;;9.67;;
16792;SDS011;8513;42.662;23.350;2023-02-11T15:32:16;12.53;;;10.47;;
16792;SDS011;8513;42.662;23.350;2023-02-11T15:34:45;13.43;;;10.87;;
16792;SDS011;8513;42.662;23.350;2023-02-11T15:37:13;16.30;;;11.83;;
16792;SDS011;8513;42.662;23.350;2023-02-11T15:40:08;14.60;;;11.27;;
16792;SDS011;8513;42.662;23.350;2023-02-11T15:42:36;15.20;;;11.40;;
16792;SDS011;8513;42.662;23.350;2023-02-11T15:45:20;13.90;;;11.30;;
16792;SDS011;8513;42.662;23.350;2023-02-11T15:48:12;15.50;;;12.00;;
16792;SDS011;8513;42.662;23.350;2023-02-11T15:50:41;17.33;;;12.20;;
16792;SDS011;8513;42.662;23.350;2023-02-11T15:56:02;17.03;;;12.77;;
16792;SDS011;8513;42.662;23.350;2023-02-11T15:58:36;15.60;;;12.47;;
16792;SDS011;8513;42.662;23.350;2023-02-11T16:01:04;17.43;;;13.07;;
16792;SDS011;8513;42.662;23.350;2023-02-11T16:03:30;14.87;;;12.90;;
16792;SDS011;8513;42.662;23.350;2023-02-11T16:06:18;16.73;;;13.00;;
16792;SDS011;8513;42.662;23.350;2023-02-11T16:09:03;18.87;;;14.23;;
16792;SDS011;8513;42.662;23.350;2023-02-11T16:11:31;17.00;;;13.50;;
16792;SDS011;8513;42.662;23.350;2023-02-11T16:13:59;16.80;;;13.43;;
16792;SDS011;8513;42.662;23.350;2023-02-11T16:16:26;17.07;;;13.87;;
16792;SDS011;8513;42.662;23.350;2023-02-11T16:18:56;15.83;;;12.80;;
16792;SDS011;8513;42.662;23.350;2023-02-11T16:21:35;16.63;;;12.60;;
16792;SDS011;8513;42.662;23.350;2023-02-11T16:24:06;18.50;;;13.90;;
16792;SDS011;8513;42.662;23.350;2023-02-11T16:26:39;14.53;;;12.83;;
16792;SDS011;8513;42.662;23.350;2023-02-11T16:31:41;15.17;;;11.47;;
16792;SDS011;8513;42.662;23.350;2023-02-11T16:34:12;14.93;;;11.37;;
16792;SDS011;8513;42.662;23.350;2023-02-11T16:36:37;15.47;;;11.53;;
16792;SDS011;8513;42.662;23.350;2023-02-11T16:39:03;13.40;;;11.10;;
16792;SDS011;8513;42.662;23.350;2023-02-11T16:41:28;12.97;;;11.13;;
16792;SDS011;8513;42.662;23.350;2023-02-11T16:43:55;11.73;;;10.13;;
16792;SDS011;8513;42.662;23.350;2023-02-11T16:46:21;14.00;;;11.00;;
16792;SDS011;8513;42.662;23.350;2023-02-11T16:48:47;13.97;;;11.57;;
16792;SDS011;8513;42.662;23.350;2023-02-11T16:51:12;13.40;;;11.37;;
16792;SDS011;8513;42.662;23.350;2023-02-11T16:53:38;12.50;;;11.20;;
16792;SDS011;8513;42.662;23.350;2023-02-11T16:56:03;14.87;;;11.90;;
16792;SDS011;8513;42.662;23.350;2023-02-11T16:58:29;12.70;;;11.23;;
16792;SDS011;8513;42.662;23.350;2023-02-11T17:00:54;19.97;;;12.00;;
16792;SDS011;8513;42.662;23.350;2023-02-11T17:03:21;13.47;;;11.60;;
16792;SDS011;8513;42.662;23.350;2023-02-11T17:05:49;14.37;;;11.53;;
16792;SDS011;8513;42.662;23.350;2023-02-11T17:08:15;14.07;;;11.63;;
16792;SDS011;8513;42.662;23.350;2023-02-11T17:10:41;15.70;;;12.10;;
16792;SDS011;8513;42.662;23.350;2023-02-11T17:13:06;13.90;;;11.90;;
16792;SDS011;8513;42.662;23.350;2023-02-11T17:15:32;12.90;;;11.50;;
16792;SDS011;8513;42.662;23.350;2023-02-11T17:17:57;13.07;;;11.30;;
16792;SDS011;8513;42.662;23.350;2023-02-11T17:20:23;14.33;;;11.90;;
16792;SDS011;8513;42.662;23.350;2023-02-11T17:22:49;15.83;;;12.50;;
16792;SDS011;8513;42.662;23.350;2023-02-11T17:25:15;14.30;;;12.17;;
16792;SDS011;8513;42.662;23.350;2023-02-11T17:27:40;12.63;;;11.30;;
16792;SDS011;8513;42.662;23.350;2023-02-11T17:30:06;13.47;;;11.27;;
16792;SDS011;8513;42.662;23.350;2023-02-11T17:32:32;13.03;;;11.10;;
16792;SDS011;8513;42.662;23.350;2023-02-11T17:34:57;14.77;;;11.37;;
16792;SDS011;8513;42.662;23.350;2023-02-11T17:37:23;14.47;;;11.70;;
16792;SDS011;8513;42.662;23.350;2023-02-11T17:39:49;13.93;;;12.20;;
16792;SDS011;8513;42.662;23.350;2023-02-11T17:42:15;14.97;;;11.73;;
16792;SDS011;8513;42.662;23.350;2023-02-11T17:44:43;14.30;;;11.43;;
16792;SDS011;8513;42.662;23.350;2023-02-11T17:47:09;12.63;;;11.33;;
16792;SDS011;8513;42.662;23.350;2023-02-11T17:49:35;14.43;;;11.20;;
16792;SDS011;8513;42.662;23.350;2023-02-11T17:52:00;13.90;;;11.87;;
16792;SDS011;8513;42.662;23.350;2023-02-11T17:54:25;14.70;;;11.80;;
16792;SDS011;8513;42.662;23.350;2023-02-11T17:56:51;16.43;;;11.77;;
16792;SDS011;8513;42.662;23.350;2023-02-11T17:59:19;14.00;;;11.17;;
16792;SDS011;8513;42.662;23.350;2023-02-11T18:01:44;12.80;;;11.00;;
16792;SDS011;8513;42.662;23.350;2023-02-11T18:04:14;14.87;;;12.20;;
16792;SDS011;8513;42.662;23.350;2023-02-11T18:06:41;12.87;;;10.63;;
16792;SDS011;8513;42.662;23.350;2023-02-11T18:09:07;15.27;;;11.77;;
16792;SDS011;8513;42.662;23.350;2023-02-11T18:11:33;17.00;;;11.77;;
16792;SDS011;8513;42.662;23.350;2023-02-11T18:14:01;17.47;;;12.57;;
16792;SDS011;8513;42.662;23.350;2023-02-11T18:16:28;16.90;;;12.90;;
16792;SDS011;8513;42.662;23.350;2023-02-11T18:18:55;15.10;;;12.50;;
16792;SDS011;8513;42.662;23.350;2023-02-11T18:21:22;18.67;;;13.93;;
16792;SDS011;8513;42.662;23.350;2023-02-11T18:23:49;18.20;;;14.43;;
16792;SDS011;8513;42.662;23.350;2023-02-11T18:26:15;21.00;;;15.53;;
16792;SDS011;8513;42.662;23.350;2023-02-11T18:28:43;20.37;;;15.60;;
16792;SDS011;8513;42.662;23.350;2023-02-11T18:31:09;21.30;;;16.03;;